DuBois Regional Airport
KDUJ : now visible

Airfield :











YOU CAN JOIN US ON...

 
LOGIN :

Register | Disclaimer

   EN    FR    IT 

 









Legend :    VFR   Marginal VFR   IFR   Intensive IFR   Very Intensive IFR
Visi :
Ceiling :
>= 8 km
>= 3000ft
5 to 8 km
1000 to 3000 ft
1500m to 5 km
500 to 1000 ft
800 to 1500m
200 to 500 ft
< 800m
< 200 ft
Symbols :   Thunderstorms  Fog  Heavy snow  Heavy precipitations  Wind > 20 kt






- Airport Elevation : 1817 ft
- IATA code : DUJ


KDUJ - DuBois Regional

CURRENT METAR :
  • 160708Z AUTO 28009KT 10SM BKN009 OVC014 01/M01 A2976 RMK AO2 CIG 006V011 T00111006

EXPIRED METARs :
  • 160653Z AUTO 27006KT 10SM BKN010 OVC016 02/M01 A2975 RMK AO2 CIG 006V014 SLP086 T00171006
  • 160649Z AUTO 28007KT 10SM BKN010 OVC016 02/M01 A2975 RMK AO2 CIG 006V014
  • 160553Z AUTO 27008KT 10SM BKN005 BKN012 OVC017 01/00 A2975 RMK AO2 CIG 003V009 SLP086 60024 T00110000 10017 20006 56005
  • 160509Z AUTO 27007KT 9SM BKN003 BKN007 OVC015 01/M01 A2975 RMK AO2 T00111006
  • 160453Z AUTO 28007KT 10SM BKN005 OVC014 01/M01 A2976 RMK AO2 SNE41 SLP088 P0006 T00111006 400890006
  • 160436Z AUTO 28004KT 3SM -SN BR BKN004 BKN009 OVC013 01/M01 A2976 RMK AO2 P0006 T00061006

TAF KDUJ
Valid from the 16 at 06:00 until the 17 at 06:00 UTC


160536Z 1606/1706 28008KT P6SM VCSH OVC004
FM160800 27008KT 4SM BR OVC003
FM161400 28011G20KT P6SM VCSH OVC008
FM170300 29008KT 4SM BR OVC005
KZOB FIR / North America



MET'MAP, your aeronautical weather chart ! - Copyright ORBIFLY December 2007 - Disclaimer

ORBIFLY MET'MAP TEAM :

Programming & Development : Alexandra Zaïnal
Concept & original design : Baudouin d'Aumeries
Assistance for programming : Marc-Olivier Méhu
Technical & hardware support : Manuel Goepfert

Contact : metmap@orbifly.com




SOURCES & CREDITS :

   NOAA       Earth
Advisory